createdAt,value
2017-11-29T05:00:45.394Z,0
2017-11-29T05:01:10.851Z,0
2017-11-29T05:01:36.322Z,0
2017-11-29T05:02:01.821Z,0
2017-11-29T05:02:27.285Z,0
2017-11-29T05:02:52.669Z,0
2017-11-29T05:03:18.139Z,0
2017-11-29T05:03:43.614Z,0
2017-11-29T05:04:09.076Z,0
2017-11-29T05:04:34.499Z,0
2017-11-29T05:04:59.988Z,0
2017-11-29T05:05:25.464Z,0
2017-11-29T05:05:50.836Z,0
2017-11-29T05:06:16.283Z,0
2017-11-29T05:06:41.855Z,0
2017-11-29T05:07:07.298Z,0
2017-11-29T05:07:32.770Z,0
2017-11-29T05:07:58.210Z,0
2017-11-29T05:08:23.711Z,0
2017-11-29T05:08:49.131Z,0
2017-11-29T05:09:14.586Z,0
2017-11-29T05:09:40.049Z,0
2017-11-29T05:10:05.528Z,0
2017-11-29T05:10:31.022Z,0
2017-11-29T05:10:56.498Z,0
2017-11-29T05:11:21.989Z,0
2017-11-29T05:11:47.479Z,0
2017-11-29T05:12:12.967Z,0
2017-11-29T05:12:38.474Z,0
2017-11-29T05:13:03.968Z,0
2017-11-29T05:13:29.433Z,0
2017-11-29T05:13:54.969Z,0
2017-11-29T05:14:20.451Z,0
2017-11-29T05:14:45.911Z,0
2017-11-29T05:15:11.400Z,0
2017-11-29T05:15:36.878Z,0
2017-11-29T05:16:02.372Z,0
2017-11-29T05:16:27.861Z,0
2017-11-29T05:16:53.395Z,0
2017-11-29T05:17:18.853Z,0
2017-11-29T05:17:44.344Z,0
2017-11-29T05:18:09.791Z,0
2017-11-29T05:18:35.291Z,0
2017-11-29T05:19:00.782Z,0
2017-11-29T05:19:26.253Z,0
2017-11-29T05:19:51.776Z,0
2017-11-29T05:20:17.232Z,0
2017-11-29T05:20:42.712Z,0
2017-11-29T05:21:08.172Z,0
2017-11-29T05:21:33.681Z,0
2017-11-29T05:21:59.149Z,0
2017-11-29T05:22:24.635Z,0
2017-11-29T05:22:50.090Z,0
2017-11-29T05:23:15.600Z,0
2017-11-29T05:23:41.090Z,0
2017-11-29T05:24:06.539Z,0
2017-11-29T05:24:32.028Z,0
2017-11-29T05:24:57.471Z,0
2017-11-29T05:25:22.973Z,0
2017-11-29T05:25:48.443Z,0
2017-11-29T05:26:13.940Z,0
2017-11-29T05:26:39.423Z,0
2017-11-29T05:27:04.905Z,0
2017-11-29T05:27:30.385Z,0
2017-11-29T05:27:55.881Z,0
2017-11-29T05:28:21.354Z,0
2017-11-29T05:28:46.862Z,0
2017-11-29T05:29:12.358Z,0
2017-11-29T05:29:37.848Z,0
2017-11-29T05:30:03.324Z,0
2017-11-29T05:30:28.793Z,0
2017-11-29T05:30:54.270Z,0
2017-11-29T05:31:19.752Z,0
2017-11-29T05:31:45.214Z,0
2017-11-29T05:32:10.731Z,0
2017-11-29T05:32:36.223Z,0
2017-11-29T05:33:01.723Z,0
2017-11-29T05:33:27.223Z,0
2017-11-29T05:33:52.681Z,0
2017-11-29T05:34:18.184Z,0
2017-11-29T05:34:43.660Z,0
2017-11-29T05:35:09.121Z,0
2017-11-29T05:35:34.605Z,0
2017-11-29T05:36:00.099Z,0
2017-11-29T05:36:25.595Z,0
2017-11-29T05:36:51.080Z,0
2017-11-29T05:37:16.578Z,0
2017-11-29T05:37:42.070Z,0
2017-11-29T05:38:07.554Z,0
2017-11-29T05:38:33.072Z,0
2017-11-29T05:38:58.532Z,0
2017-11-29T05:39:24.041Z,0
2017-11-29T05:39:49.539Z,0
2017-11-29T05:40:15.006Z,0
2017-11-29T05:40:40.446Z,0
2017-11-29T05:41:05.936Z,0
2017-11-29T05:41:31.385Z,0
2017-11-29T05:41:56.873Z,0
2017-11-29T05:42:22.343Z,0
2017-11-29T05:42:47.846Z,0
2017-11-29T05:43:13.291Z,0
2017-11-29T05:43:38.795Z,0
2017-11-29T05:44:04.262Z,0
2017-11-29T05:44:29.676Z,0
2017-11-29T05:44:55.156Z,0
2017-11-29T05:45:20.643Z,0
2017-11-29T05:45:46.118Z,0
2017-11-29T05:46:11.576Z,0
2017-11-29T05:46:37.055Z,0
2017-11-29T05:47:02.544Z,0
2017-11-29T05:47:27.985Z,0
2017-11-29T05:47:53.445Z,0
2017-11-29T05:48:18.912Z,0
2017-11-29T05:48:44.391Z,0
2017-11-29T05:49:09.823Z,0
2017-11-29T05:49:35.295Z,0
2017-11-29T05:50:00.741Z,0
2017-11-29T05:50:26.199Z,0
2017-11-29T05:50:51.675Z,0
2017-11-29T05:51:17.165Z,0
2017-11-29T05:51:42.610Z,0
2017-11-29T05:52:08.072Z,0
2017-11-29T05:52:33.595Z,0
2017-11-29T05:52:59.131Z,0
2017-11-29T05:53:24.605Z,0
2017-11-29T05:53:50.089Z,0
2017-11-29T05:54:15.492Z,0
2017-11-29T05:54:40.947Z,0
2017-11-29T05:55:06.412Z,0
2017-11-29T05:55:31.888Z,0
2017-11-29T05:55:57.380Z,0
2017-11-29T05:56:22.803Z,0
2017-11-29T05:56:48.287Z,0
2017-11-29T05:57:13.728Z,0
2017-11-29T05:57:39.205Z,0
2017-11-29T05:58:04.699Z,0
2017-11-29T05:58:30.163Z,0
2017-11-29T05:58:55.658Z,0
2017-11-29T05:59:21.088Z,0
2017-11-29T05:59:46.677Z,0
2017-11-29T06:00:12.180Z,0
2017-11-29T06:00:37.617Z,0
2017-11-29T06:01:03.080Z,0
2017-11-29T06:01:28.551Z,0
2017-11-29T06:01:54.005Z,0
2017-11-29T06:02:19.483Z,0
2017-11-29T06:02:44.960Z,0
2017-11-29T06:03:10.389Z,0
2017-11-29T06:03:35.834Z,0
2017-11-29T06:04:01.311Z,0
2017-11-29T06:04:26.753Z,0
2017-11-29T06:04:52.222Z,0
2017-11-29T06:05:17.637Z,0
2017-11-29T06:05:43.125Z,0
2017-11-29T06:06:08.555Z,0
2017-11-29T06:06:34.021Z,0
2017-11-29T06:06:59.457Z,0
2017-11-29T06:07:24.917Z,0
2017-11-29T06:07:50.392Z,0
2017-11-29T06:08:15.897Z,0
2017-11-29T06:08:41.387Z,0
2017-11-29T06:09:06.837Z,0
2017-11-29T06:09:32.303Z,0
2017-11-29T06:09:57.732Z,0
2017-11-29T06:10:23.183Z,0
2017-11-29T06:10:48.660Z,0
2017-11-29T06:11:14.151Z,0
2017-11-29T06:11:39.625Z,0
2017-11-29T06:12:05.063Z,0
2017-11-29T06:12:30.578Z,0
2017-11-29T06:12:56.068Z,0
2017-11-29T06:13:21.540Z,0
2017-11-29T06:13:46.987Z,0
2017-11-29T06:14:12.489Z,0
2017-11-29T06:14:37.964Z,0
2017-11-29T06:15:03.420Z,0
2017-11-29T06:15:28.863Z,0
2017-11-29T06:15:54.350Z,0
2017-11-29T06:16:19.765Z,0
2017-11-29T06:16:45.237Z,0
2017-11-29T06:17:10.700Z,0
2017-11-29T06:17:36.157Z,0
2017-11-29T06:18:01.579Z,0
2017-11-29T06:18:27.040Z,0
2017-11-29T06:18:52.502Z,0
2017-11-29T06:19:17.985Z,0
2017-11-29T06:19:43.456Z,0
2017-11-29T06:20:08.916Z,0
2017-11-29T06:20:34.394Z,0
2017-11-29T06:20:59.854Z,0
2017-11-29T06:21:25.324Z,0
2017-11-29T06:21:50.774Z,0
2017-11-29T06:22:16.229Z,0
2017-11-29T06:22:41.714Z,0
2017-11-29T06:23:07.187Z,0
2017-11-29T06:23:32.666Z,0
2017-11-29T06:23:58.108Z,0
2017-11-29T06:24:23.616Z,0
2017-11-29T06:24:49.184Z,0
2017-11-29T06:25:14.632Z,0
2017-11-29T06:25:40.087Z,0
2017-11-29T06:26:05.563Z,0
2017-11-29T06:26:31.044Z,0
2017-11-29T06:26:56.482Z,0
2017-11-29T06:27:21.925Z,0
2017-11-29T06:27:47.405Z,0
2017-11-29T06:28:12.836Z,0
2017-11-29T06:28:38.362Z,0
2017-11-29T06:29:03.812Z,0
2017-11-29T06:29:29.242Z,0
2017-11-29T06:29:54.722Z,0
2017-11-29T06:30:20.202Z,0
2017-11-29T06:30:45.642Z,0
2017-11-29T06:31:11.096Z,0
2017-11-29T06:31:36.543Z,0
2017-11-29T06:32:01.993Z,0
2017-11-29T06:32:27.463Z,0
2017-11-29T06:32:52.911Z,0
2017-11-29T06:33:18.368Z,0
2017-11-29T06:33:43.871Z,0
2017-11-29T06:34:09.304Z,0
2017-11-29T06:34:34.761Z,0
2017-11-29T06:35:00.236Z,0
2017-11-29T06:35:25.716Z,0
2017-11-29T06:35:51.134Z,0
2017-11-29T06:36:16.593Z,0
2017-11-29T06:36:42.072Z,0
2017-11-29T06:37:07.502Z,0
2017-11-29T06:37:32.991Z,0
2017-11-29T06:37:58.435Z,0
2017-11-29T06:38:23.877Z,0
2017-11-29T06:38:49.364Z,0
2017-11-29T06:39:14.796Z,0
2017-11-29T06:39:40.273Z,0
2017-11-29T06:40:05.754Z,0
2017-11-29T06:40:31.255Z,0
2017-11-29T06:40:56.706Z,0
2017-11-29T06:41:22.188Z,0
2017-11-29T06:41:47.632Z,0
2017-11-29T06:42:13.170Z,0
2017-11-29T06:42:38.580Z,0
2017-11-29T06:43:04.043Z,0
2017-11-29T06:43:29.504Z,0
2017-11-29T06:43:54.987Z,0
2017-11-29T06:44:20.456Z,0
2017-11-29T06:44:45.893Z,0
2017-11-29T06:45:11.394Z,0
2017-11-29T06:45:36.850Z,0
2017-11-29T06:46:02.319Z,0
2017-11-29T06:46:27.799Z,0
2017-11-29T06:46:53.243Z,0
2017-11-29T06:47:18.690Z,0
2017-11-29T06:47:44.149Z,0
2017-11-29T06:48:09.690Z,0
2017-11-29T06:48:35.157Z,0
2017-11-29T06:49:00.621Z,0
2017-11-29T06:49:26.073Z,0
2017-11-29T06:49:51.580Z,0
2017-11-29T06:50:17.037Z,0
2017-11-29T06:50:42.533Z,0
2017-11-29T06:51:07.968Z,0
2017-11-29T06:51:33.452Z,0
2017-11-29T06:51:58.920Z,0
2017-11-29T06:52:24.391Z,0
2017-11-29T06:52:49.815Z,0
2017-11-29T06:53:15.290Z,0
2017-11-29T06:53:40.740Z,0
2017-11-29T06:54:06.222Z,0
2017-11-29T06:54:31.688Z,0
2017-11-29T06:54:57.176Z,0
2017-11-29T06:55:22.642Z,0
2017-11-29T06:55:48.098Z,0
2017-11-29T06:56:13.585Z,0
2017-11-29T06:56:39.065Z,0
2017-11-29T06:57:04.568Z,0
2017-11-29T06:57:30.007Z,0
2017-11-29T06:57:55.451Z,0
2017-11-29T06:58:20.923Z,0
2017-11-29T06:58:46.370Z,0
2017-11-29T06:59:11.839Z,0
2017-11-29T06:59:37.295Z,0
2017-11-29T07:00:02.753Z,0
2017-11-29T07:00:28.208Z,0
2017-11-29T07:00:53.672Z,0
2017-11-29T07:01:19.162Z,0
2017-11-29T07:01:44.608Z,0
2017-11-29T07:02:10.053Z,0
2017-11-29T07:02:35.541Z,0
2017-11-29T07:03:00.981Z,0
2017-11-29T07:03:26.430Z,0
2017-11-29T07:03:51.891Z,0
2017-11-29T07:04:17.362Z,0
2017-11-29T07:04:42.873Z,0
2017-11-29T07:05:08.345Z,0
2017-11-29T07:05:33.799Z,0
2017-11-29T07:05:59.256Z,0
2017-11-29T07:06:24.746Z,0
2017-11-29T07:06:50.185Z,0
2017-11-29T07:07:15.668Z,0
2017-11-29T07:07:41.085Z,0
2017-11-29T07:08:06.551Z,0
2017-11-29T07:08:32.026Z,0
2017-11-29T07:08:57.466Z,0
2017-11-29T07:09:22.919Z,5
2017-11-29T07:09:48.381Z,5
2017-11-29T07:10:13.842Z,5
2017-11-29T07:10:39.374Z,5
2017-11-29T07:11:04.781Z,5
2017-11-29T07:11:30.281Z,5
2017-11-29T07:11:55.744Z,5
2017-11-29T07:12:21.241Z,5
2017-11-29T07:12:46.712Z,5
2017-11-29T07:13:12.205Z,5
2017-11-29T07:13:37.670Z,5
2017-11-29T07:14:03.149Z,5
2017-11-29T07:14:28.605Z,5
2017-11-29T07:14:54.015Z,5
2017-11-29T07:15:19.497Z,5
2017-11-29T07:15:44.951Z,5
2017-11-29T07:16:10.423Z,5
2017-11-29T07:16:35.995Z,5
2017-11-29T07:17:01.475Z,5
2017-11-29T07:17:26.934Z,5
2017-11-29T07:17:52.398Z,5
2017-11-29T07:18:17.845Z,5
2017-11-29T07:18:43.340Z,5
2017-11-29T07:19:08.796Z,5
2017-11-29T07:19:34.253Z,10
2017-11-29T07:19:59.710Z,10
2017-11-29T07:20:25.165Z,10
2017-11-29T07:20:50.634Z,10
2017-11-29T07:21:16.126Z,10
2017-11-29T07:21:41.622Z,10
2017-11-29T07:22:07.081Z,10
2017-11-29T07:22:32.601Z,10
2017-11-29T07:22:58.045Z,10
2017-11-29T07:23:23.530Z,10
2017-11-29T07:23:48.992Z,10
2017-11-29T07:24:14.451Z,10
2017-11-29T07:24:39.930Z,10
2017-11-29T07:25:05.387Z,10
2017-11-29T07:25:30.884Z,10
2017-11-29T07:25:56.437Z,10
2017-11-29T07:26:21.931Z,10
2017-11-29T07:26:47.339Z,10
2017-11-29T07:27:12.824Z,10
2017-11-29T07:27:38.288Z,15
2017-11-29T07:28:03.722Z,15
2017-11-29T07:28:29.189Z,15
2017-11-29T07:28:54.660Z,15
2017-11-29T07:29:20.138Z,15
2017-11-29T07:29:45.595Z,15
2017-11-29T07:30:11.077Z,15
2017-11-29T07:30:36.534Z,15
2017-11-29T07:31:01.991Z,15
2017-11-29T07:31:27.500Z,15
2017-11-29T07:31:52.987Z,15
2017-11-29T07:33:16.962Z,15
2017-11-29T07:33:42.425Z,15
2017-11-29T07:34:07.914Z,20
2017-11-29T07:35:26.814Z,20
2017-11-29T07:35:52.318Z,20
2017-11-29T07:36:17.775Z,20
2017-11-29T07:36:43.220Z,20
2017-11-29T07:37:08.711Z,20
2017-11-29T07:37:34.195Z,20
2017-11-29T07:37:59.675Z,20
2017-11-29T07:38:25.129Z,20
2017-11-29T07:38:50.574Z,20
2017-11-29T07:39:16.055Z,25
2017-11-29T07:39:41.505Z,25
2017-11-29T07:40:06.997Z,25
2017-11-29T07:40:32.493Z,25
2017-11-29T07:40:58.014Z,25
2017-11-29T07:41:23.557Z,25
2017-11-29T07:41:48.994Z,25
2017-11-29T07:42:14.439Z,25
2017-11-29T07:42:39.945Z,25
2017-11-29T07:43:05.427Z,25
2017-11-29T07:43:31.019Z,25
2017-11-29T07:43:56.565Z,30
2017-11-29T07:44:22.138Z,30
2017-11-29T07:44:47.591Z,25
2017-11-29T07:45:13.099Z,30
2017-11-29T07:45:38.650Z,30
2017-11-29T07:46:04.137Z,30
2017-11-29T07:46:29.617Z,30
2017-11-29T07:46:55.136Z,30
2017-11-29T07:47:20.579Z,30
2017-11-29T07:47:46.032Z,30
2017-11-29T07:48:11.508Z,30
2017-11-29T07:48:36.958Z,30
2017-11-29T07:49:02.427Z,30
2017-11-29T07:49:27.939Z,30
2017-11-29T07:49:53.352Z,30
2017-11-29T07:50:18.851Z,30
2017-11-29T07:50:44.391Z,30
2017-11-29T07:51:09.841Z,30
2017-11-29T07:51:35.339Z,30
2017-11-29T07:52:00.898Z,35
2017-11-29T07:52:26.398Z,35
2017-11-29T07:52:51.865Z,35
2017-11-29T07:53:17.339Z,35
2017-11-29T07:53:42.817Z,35
2017-11-29T07:54:08.320Z,35
2017-11-29T07:54:33.778Z,35
2017-11-29T07:54:59.244Z,35
2017-11-29T07:55:24.704Z,35
2017-11-29T07:55:50.157Z,35
2017-11-29T07:56:15.663Z,40
2017-11-29T07:56:41.150Z,40
2017-11-29T07:57:06.643Z,40
2017-11-29T07:57:32.122Z,40
2017-11-29T07:57:57.574Z,40
2017-11-29T07:58:23.066Z,40
2017-11-29T07:58:48.513Z,40
2017-11-29T07:59:14.024Z,40
2017-11-29T07:59:39.492Z,40
2017-11-29T08:00:04.969Z,40
2017-11-29T08:00:30.885Z,40
2017-11-29T08:00:56.397Z,45
2017-11-29T08:01:21.838Z,45
2017-11-29T08:01:47.318Z,45
2017-11-29T08:02:12.805Z,45
2017-11-29T08:02:38.340Z,45
2017-11-29T08:03:03.824Z,45
2017-11-29T08:03:29.279Z,45
2017-11-29T08:03:54.723Z,45
2017-11-29T08:04:20.225Z,45
2017-11-29T08:04:45.722Z,45
2017-11-29T08:05:11.260Z,45
2017-11-29T08:05:36.702Z,45
2017-11-29T08:06:02.193Z,50
2017-11-29T08:06:27.635Z,50
2017-11-29T08:06:53.110Z,50
2017-11-29T08:08:01.817Z,50
2017-11-29T08:08:27.299Z,50
2017-11-29T08:08:52.799Z,50
2017-11-29T08:09:18.264Z,55
2017-11-29T08:09:43.713Z,55
2017-11-29T08:10:09.237Z,55
2017-11-29T08:10:34.668Z,55
2017-11-29T08:11:00.123Z,55
2017-11-29T08:11:25.589Z,55
2017-11-29T08:11:51.183Z,55
2017-11-29T08:12:16.630Z,55
2017-11-29T08:12:42.087Z,55
2017-11-29T08:13:07.590Z,55
2017-11-29T08:13:33.039Z,55
2017-11-29T08:13:58.501Z,55
2017-11-29T08:14:23.974Z,55
2017-11-29T08:14:49.453Z,60
2017-11-29T08:15:14.926Z,60
2017-11-29T08:15:40.467Z,55
2017-11-29T08:16:05.947Z,60
2017-11-29T08:16:31.443Z,60
2017-11-29T08:16:56.929Z,60
2017-11-29T08:17:22.389Z,60
2017-11-29T08:17:47.861Z,60
2017-11-29T08:18:13.376Z,55
2017-11-29T08:19:27.202Z,55
2017-11-29T08:19:52.680Z,55
2017-11-29T08:20:18.158Z,55
2017-11-29T08:20:43.609Z,55
2017-11-29T08:21:09.167Z,50
2017-11-29T08:21:34.674Z,50
2017-11-29T08:22:00.131Z,50
2017-11-29T08:22:25.610Z,50
2017-11-29T08:22:51.099Z,50
2017-11-29T08:23:16.579Z,50
2017-11-29T08:23:42.041Z,50
2017-11-29T08:24:07.517Z,45
2017-11-29T08:24:33.004Z,45
2017-11-29T08:24:58.474Z,45
2017-11-29T08:25:23.955Z,45
2017-11-29T08:25:49.457Z,45
2017-11-29T08:26:14.911Z,45
2017-11-29T08:26:40.423Z,45
2017-11-29T08:27:05.880Z,45
2017-11-29T08:27:31.397Z,45
2017-11-29T08:27:56.866Z,45
2017-11-29T08:28:22.360Z,45
2017-11-29T08:28:47.818Z,45
2017-11-29T08:29:13.300Z,45
2017-11-29T08:29:38.825Z,40
2017-11-29T08:30:04.321Z,40
2017-11-29T08:30:29.780Z,40
2017-11-29T08:30:55.243Z,40
2017-11-29T08:31:20.687Z,40
2017-11-29T08:31:46.173Z,40
2017-11-29T08:32:11.666Z,45
2017-11-29T08:32:37.169Z,45
2017-11-29T08:33:02.662Z,45
2017-11-29T08:33:28.147Z,45
2017-11-29T08:33:53.656Z,45
2017-11-29T08:34:19.137Z,50
2017-11-29T08:34:44.651Z,50
2017-11-29T08:35:10.197Z,50
2017-11-29T08:35:35.672Z,50
2017-11-29T08:36:01.181Z,50
2017-11-29T08:36:26.681Z,55
2017-11-29T08:36:52.142Z,55
2017-11-29T08:37:17.685Z,50
2017-11-29T08:37:43.151Z,50
2017-11-29T08:38:08.669Z,50
2017-11-29T08:38:34.107Z,50
2017-11-29T08:38:59.566Z,50
2017-11-29T08:39:25.076Z,55
2017-11-29T08:39:50.598Z,55
2017-11-29T08:40:16.107Z,55
2017-11-29T08:40:41.604Z,60
2017-11-29T08:41:07.052Z,60
2017-11-29T08:41:32.565Z,60
2017-11-29T08:41:58.036Z,60
2017-11-29T08:42:23.499Z,55
2017-11-29T08:42:49.036Z,55
2017-11-29T08:43:14.481Z,55
2017-11-29T08:43:39.972Z,55
2017-11-29T08:44:05.451Z,60
2017-11-29T08:44:30.910Z,55
2017-11-29T08:44:56.391Z,55
2017-11-29T08:45:21.876Z,55
2017-11-29T08:45:47.346Z,55
2017-11-29T08:46:12.818Z,55
2017-11-29T08:46:38.325Z,55
2017-11-29T08:47:03.862Z,55
2017-11-29T08:47:29.331Z,60
2017-11-29T08:47:54.784Z,60
2017-11-29T08:48:20.332Z,50
2017-11-29T08:48:45.799Z,50
2017-11-29T08:49:11.303Z,50
2017-11-29T08:49:36.802Z,55
2017-11-29T08:50:02.264Z,60
2017-11-29T08:50:27.732Z,60
2017-11-29T08:50:53.190Z,60
2017-11-29T08:51:18.656Z,60
2017-11-29T08:51:44.198Z,60
2017-11-29T08:52:09.674Z,60
2017-11-29T08:52:35.175Z,60
2017-11-29T08:53:00.642Z,60
2017-11-29T08:53:26.100Z,60
2017-11-29T08:53:51.616Z,60
2017-11-29T08:54:17.138Z,60
2017-11-29T08:54:42.700Z,65
2017-11-29T08:55:08.223Z,65
2017-11-29T08:55:33.766Z,65
2017-11-29T08:55:59.319Z,65
2017-11-29T08:56:24.848Z,65
2017-11-29T08:56:50.327Z,70
2017-11-29T08:57:15.813Z,65
2017-11-29T08:57:41.321Z,70
2017-11-29T08:58:06.806Z,70
2017-11-29T08:58:32.311Z,65
2017-11-29T08:58:57.840Z,65
2017-11-29T08:59:23.294Z,65
2017-11-29T08:59:48.757Z,60
2017-11-29T09:00:14.257Z,55
2017-11-29T09:00:39.726Z,55
2017-11-29T09:01:05.193Z,50
2017-11-29T09:01:30.674Z,55
2017-11-29T09:01:56.177Z,60
2017-11-29T09:02:21.668Z,65
2017-11-29T09:02:47.121Z,65
2017-11-29T09:03:12.655Z,60
2017-11-29T09:03:38.081Z,65
2017-11-29T09:04:03.595Z,70
2017-11-29T09:04:29.046Z,75
2017-11-29T09:04:54.599Z,80
2017-11-29T09:05:20.088Z,80
2017-11-29T09:05:45.582Z,80
2017-11-29T09:06:11.136Z,80
2017-11-29T09:06:36.610Z,80
2017-11-29T09:07:02.108Z,80
2017-11-29T09:07:27.627Z,80
2017-11-29T09:07:53.097Z,80
2017-11-29T09:08:18.588Z,75
2017-11-29T09:08:44.036Z,70
2017-11-29T09:09:09.571Z,70
2017-11-29T09:09:35.012Z,75
2017-11-29T09:10:00.494Z,75
2017-11-29T09:10:25.951Z,80
2017-11-29T09:10:51.407Z,80
2017-11-29T09:11:16.868Z,80
2017-11-29T09:11:42.372Z,75
2017-11-29T09:12:07.866Z,65
2017-11-29T09:12:33.320Z,60
2017-11-29T09:12:58.815Z,60
2017-11-29T09:13:24.224Z,60
2017-11-29T09:13:49.714Z,60
2017-11-29T09:14:15.207Z,60
2017-11-29T09:14:40.684Z,65
2017-11-29T09:15:06.172Z,65
2017-11-29T09:16:35.240Z,70
2017-11-29T09:17:00.744Z,65
2017-11-29T09:17:26.207Z,70
2017-11-29T09:17:51.663Z,70
2017-11-29T09:18:17.153Z,70
2017-11-29T09:18:42.646Z,70
2017-11-29T09:19:08.133Z,70
2017-11-29T09:19:33.599Z,75
2017-11-29T09:19:59.113Z,80
2017-11-29T09:20:24.593Z,75
2017-11-29T09:20:50.130Z,70
2017-11-29T09:21:15.563Z,70
2017-11-29T09:21:41.016Z,70
2017-11-29T09:22:06.519Z,75
2017-11-29T09:22:32.013Z,75
2017-11-29T09:22:57.515Z,80
2017-11-29T09:23:23.012Z,80
2017-11-29T09:23:48.508Z,80
2017-11-29T09:24:14.011Z,80
2017-11-29T09:24:39.450Z,75
2017-11-29T09:25:04.936Z,70
2017-11-29T09:25:30.462Z,70
2017-11-29T09:25:55.950Z,70
2017-11-29T09:26:21.436Z,80
2017-11-29T09:26:46.928Z,90
2017-11-29T09:27:12.400Z,90
2017-11-29T09:27:37.920Z,80
2017-11-29T09:28:03.467Z,80
2017-11-29T09:28:28.926Z,80
2017-11-29T09:28:54.433Z,85
2017-11-29T09:29:19.942Z,90
2017-11-29T09:29:45.461Z,90
2017-11-29T09:30:10.899Z,85
2017-11-29T09:30:36.356Z,95
2017-11-29T09:31:01.846Z,95
2017-11-29T09:31:27.329Z,90
2017-11-29T09:31:52.841Z,90
2017-11-29T09:32:18.388Z,85
2017-11-29T09:32:43.872Z,85
2017-11-29T09:33:09.329Z,85
2017-11-29T09:33:34.857Z,85
2017-11-29T09:34:00.365Z,85
2017-11-29T09:34:25.864Z,85
2017-11-29T09:34:51.324Z,85
2017-11-29T09:35:16.833Z,80
2017-11-29T09:35:42.350Z,80
2017-11-29T09:36:07.822Z,75
2017-11-29T09:36:33.288Z,80
2017-11-29T09:36:58.758Z,90
2017-11-29T09:37:24.220Z,95
2017-11-29T09:37:49.679Z,95
2017-11-29T09:38:15.161Z,95
2017-11-29T09:38:40.617Z,90
2017-11-29T09:40:04.624Z,100
2017-11-29T09:40:30.236Z,105
2017-11-29T09:40:55.681Z,105
2017-11-29T09:41:21.144Z,105
2017-11-29T09:41:46.633Z,95
2017-11-29T09:42:12.068Z,90
2017-11-29T09:42:37.547Z,85
2017-11-29T09:43:03.077Z,90
2017-11-29T09:43:28.475Z,95
2017-11-29T09:43:53.990Z,100
2017-11-29T09:44:19.460Z,105
2017-11-29T09:44:44.945Z,105
2017-11-29T09:45:10.389Z,105
2017-11-29T09:45:35.841Z,100
2017-11-29T09:46:01.303Z,100
2017-11-29T09:46:26.807Z,95
2017-11-29T09:46:52.286Z,95
2017-11-29T09:47:17.746Z,105
2017-11-29T09:47:43.264Z,105
2017-11-29T09:48:08.686Z,95
2017-11-29T09:48:34.180Z,100
2017-11-29T09:48:59.665Z,110
2017-11-29T09:49:25.133Z,115
2017-11-29T09:49:50.614Z,110
2017-11-29T09:50:16.124Z,100
2017-11-29T09:50:41.535Z,90
2017-11-29T09:51:07.047Z,85
2017-11-29T09:51:32.554Z,80
2017-11-29T09:51:58.016Z,80
2017-11-29T09:52:23.467Z,85
2017-11-29T09:52:48.959Z,85
2017-11-29T09:53:14.447Z,85
2017-11-29T09:53:39.936Z,90
2017-11-29T09:54:05.358Z,95
2017-11-29T09:54:30.839Z,90
2017-11-29T09:54:56.321Z,85
2017-11-29T09:55:21.793Z,85
2017-11-29T09:55:47.354Z,90
2017-11-29T09:56:12.750Z,90
2017-11-29T09:56:38.356Z,80
2017-11-29T09:57:03.825Z,80
2017-11-29T09:57:29.325Z,80
2017-11-29T09:57:54.744Z,80
2017-11-29T09:58:20.215Z,80
2017-11-29T09:58:45.649Z,80
2017-11-29T09:59:11.126Z,75
2017-11-29T09:59:36.581Z,70
2017-11-29T10:00:02.032Z,65
2017-11-29T10:00:27.541Z,65
2017-11-29T10:00:53.014Z,65
2017-11-29T10:01:18.480Z,65
2017-11-29T10:01:43.928Z,70
2017-11-29T10:02:09.395Z,75
2017-11-29T10:02:34.834Z,75
2017-11-29T10:03:00.326Z,70
2017-11-29T10:03:25.799Z,75
2017-11-29T10:03:51.279Z,80
2017-11-29T10:04:16.761Z,80
2017-11-29T10:04:42.262Z,75
2017-11-29T10:05:07.712Z,70
2017-11-29T10:05:33.206Z,75
2017-11-29T10:05:58.661Z,80
2017-11-29T10:06:24.183Z,85
2017-11-29T10:06:49.612Z,80
2017-11-29T10:07:15.129Z,80
2017-11-29T10:07:40.600Z,80
2017-11-29T10:08:06.146Z,85
2017-11-29T10:08:31.640Z,85
2017-11-29T10:08:57.167Z,85
2017-11-29T10:09:22.653Z,80
2017-11-29T10:09:48.182Z,85
2017-11-29T10:10:13.659Z,80
2017-11-29T10:10:39.165Z,80
2017-11-29T10:11:04.632Z,85
2017-11-29T10:11:30.130Z,85
2017-11-29T10:11:55.644Z,85
2017-11-29T10:12:21.120Z,85
2017-11-29T10:12:46.582Z,85
2017-11-29T10:13:12.096Z,90
2017-11-29T10:13:37.557Z,85
2017-11-29T10:14:03.069Z,85
2017-11-29T10:14:28.603Z,85
2017-11-29T10:14:54.038Z,80
2017-11-29T10:15:19.508Z,80
2017-11-29T10:15:45.009Z,80
2017-11-29T10:16:10.526Z,80
2017-11-29T10:16:36.050Z,75
2017-11-29T10:17:01.509Z,70
2017-11-29T10:17:27.005Z,70
2017-11-29T10:17:52.483Z,65
2017-11-29T10:18:17.903Z,65
2017-11-29T10:18:43.390Z,65
2017-11-29T10:19:08.900Z,70
2017-11-29T10:19:34.395Z,70
2017-11-29T10:19:59.839Z,70
2017-11-29T10:20:25.362Z,75
2017-11-29T10:20:50.829Z,75
2017-11-29T10:21:16.306Z,75
2017-11-29T10:21:41.824Z,70
2017-11-29T10:22:07.318Z,70
2017-11-29T10:22:32.799Z,70
2017-11-29T10:22:58.270Z,70
2017-11-29T10:23:23.780Z,70
2017-11-29T10:23:49.279Z,70
2017-11-29T10:24:14.789Z,75
2017-11-29T10:24:40.290Z,75
2017-11-29T10:25:05.756Z,75
2017-11-29T10:25:31.267Z,70
2017-11-29T10:25:56.740Z,70
2017-11-29T10:26:22.195Z,65
2017-11-29T10:26:47.660Z,60
2017-11-29T10:27:13.109Z,60
2017-11-29T10:27:38.612Z,60
2017-11-29T10:28:04.122Z,65
2017-11-29T10:28:29.629Z,65
2017-11-29T10:28:55.162Z,65
2017-11-29T10:29:20.661Z,65
2017-11-29T10:29:46.120Z,70
2017-11-29T10:30:11.660Z,70
2017-11-29T10:30:37.125Z,70
2017-11-29T10:31:02.593Z,70
2017-11-29T10:31:28.097Z,65
2017-11-29T10:31:53.546Z,65
2017-11-29T10:32:19.022Z,70
2017-11-29T10:32:44.517Z,75
2017-11-29T10:33:10.092Z,80
2017-11-29T10:33:35.571Z,85
2017-11-29T10:34:01.060Z,85
2017-11-29T10:34:26.510Z,80
2017-11-29T10:34:52.002Z,80
2017-11-29T10:35:17.442Z,85
2017-11-29T10:36:36.315Z,85
2017-11-29T10:37:01.808Z,85
2017-11-29T10:37:27.337Z,85
2017-11-29T10:37:52.925Z,85
2017-11-29T10:38:18.329Z,85
2017-11-29T10:38:43.807Z,85
2017-11-29T10:39:09.344Z,85
2017-11-29T10:39:34.893Z,80
2017-11-29T10:40:00.329Z,85
2017-11-29T10:40:25.830Z,85
2017-11-29T10:40:51.320Z,85
2017-11-29T10:41:16.829Z,85
2017-11-29T10:41:42.266Z,85
2017-11-29T10:42:07.752Z,80
2017-11-29T10:42:33.288Z,80
2017-11-29T10:42:58.724Z,80
2017-11-29T10:43:24.207Z,80
2017-11-29T10:43:49.734Z,85
2017-11-29T10:44:15.210Z,85
2017-11-29T10:44:40.733Z,80
2017-11-29T10:45:06.210Z,80
2017-11-29T10:45:31.700Z,80
2017-11-29T10:45:57.163Z,80
2017-11-29T10:46:22.659Z,80
2017-11-29T10:46:48.117Z,80
2017-11-29T10:47:13.613Z,80
2017-11-29T10:47:39.138Z,80
2017-11-29T10:48:04.585Z,85
2017-11-29T10:48:30.112Z,90
2017-11-29T10:48:55.601Z,95
2017-11-29T10:49:21.067Z,100
2017-11-29T10:49:46.570Z,105
2017-11-29T10:50:12.070Z,90
2017-11-29T10:50:37.580Z,85
2017-11-29T10:51:03.082Z,85
2017-11-29T10:51:28.575Z,80
2017-11-29T10:51:54.060Z,80
2017-11-29T10:52:19.572Z,80
2017-11-29T10:52:45.004Z,75
2017-11-29T10:53:10.496Z,75
2017-11-29T10:53:35.985Z,80
2017-11-29T10:54:01.443Z,80
2017-11-29T10:54:26.932Z,85
2017-11-29T10:54:52.415Z,80
2017-11-29T10:55:17.897Z,80
2017-11-29T10:55:43.380Z,80
2017-11-29T10:56:08.893Z,80
2017-11-29T10:56:34.379Z,80
2017-11-29T10:56:59.902Z,80
2017-11-29T10:57:25.348Z,80
2017-11-29T10:57:50.861Z,80
2017-11-29T10:58:16.358Z,80
2017-11-29T10:58:41.861Z,80
2017-11-29T10:59:07.340Z,85
2017-11-29T10:59:32.808Z,90
2017-11-29T10:59:58.289Z,85
2017-11-29T11:00:23.843Z,85
2017-11-29T11:00:49.322Z,90
2017-11-29T11:01:14.809Z,100
2017-11-29T11:01:40.277Z,105
2017-11-29T11:02:05.779Z,115
2017-11-29T11:02:31.229Z,100
2017-11-29T11:02:56.718Z,90
2017-11-29T11:03:22.202Z,85
2017-11-29T11:03:47.719Z,85
2017-11-29T11:04:13.175Z,85
2017-11-29T11:04:38.630Z,85
2017-11-29T11:05:04.133Z,80
2017-11-29T11:05:29.567Z,80
2017-11-29T11:05:55.068Z,80
2017-11-29T11:06:20.532Z,75
2017-11-29T11:06:46.023Z,70
2017-11-29T11:07:11.466Z,65
2017-11-29T11:07:36.931Z,60
2017-11-29T11:08:02.387Z,60
2017-11-29T11:08:27.874Z,60
2017-11-29T11:08:53.347Z,60
2017-11-29T11:10:07.167Z,60
2017-11-29T11:10:32.651Z,65
2017-11-29T11:10:58.106Z,60
2017-11-29T11:11:23.601Z,60
2017-11-29T11:11:49.068Z,60
2017-11-29T11:12:14.551Z,60
2017-11-29T11:12:40.045Z,60
2017-11-29T11:13:05.575Z,60
2017-11-29T11:13:31.044Z,60
2017-11-29T11:13:56.511Z,55
2017-11-29T11:14:22.025Z,55
2017-11-29T11:14:47.457Z,55
2017-11-29T11:15:12.972Z,60
2017-11-29T11:15:38.478Z,60